sensor_id;sensor_type;location;lat;lon;timestamp;P1;durP1;ratioP1;P2;durP2;ratioP2
18867;SDS011;9563;49.240;9.088;2022-11-15T00:01:34;6.13;;;2.70;;
18867;SDS011;9563;49.240;9.088;2022-11-15T00:04:02;5.10;;;2.40;;
18867;SDS011;9563;49.240;9.088;2022-11-15T00:06:30;6.30;;;2.85;;
18867;SDS011;9563;49.240;9.088;2022-11-15T00:08:57;4.55;;;2.85;;
18867;SDS011;9563;49.240;9.088;2022-11-15T00:11:25;5.75;;;2.83;;
18867;SDS011;9563;49.240;9.088;2022-11-15T00:13:54;8.13;;;3.30;;
18867;SDS011;9563;49.240;9.088;2022-11-15T00:16:21;7.22;;;2.60;;
18867;SDS011;9563;49.240;9.088;2022-11-15T00:18:48;4.05;;;2.65;;
18867;SDS011;9563;49.240;9.088;2022-11-15T00:21:15;8.77;;;2.60;;
18867;SDS011;9563;49.240;9.088;2022-11-15T00:23:45;3.65;;;2.50;;
18867;SDS011;9563;49.240;9.088;2022-11-15T00:26:12;7.05;;;3.20;;
18867;SDS011;9563;49.240;9.088;2022-11-15T00:28:40;8.30;;;2.95;;
18867;SDS011;9563;49.240;9.088;2022-11-15T00:31:08;4.50;;;2.63;;
18867;SDS011;9563;49.240;9.088;2022-11-15T00:33:37;4.30;;;2.53;;
18867;SDS011;9563;49.240;9.088;2022-11-15T00:36:04;4.05;;;2.53;;
18867;SDS011;9563;49.240;9.088;2022-11-15T00:38:34;9.07;;;2.65;;
18867;SDS011;9563;49.240;9.088;2022-11-15T00:41:05;5.53;;;2.70;;
18867;SDS011;9563;49.240;9.088;2022-11-15T00:43:32;5.35;;;2.70;;
18867;SDS011;9563;49.240;9.088;2022-11-15T00:45:59;4.45;;;2.58;;
18867;SDS011;9563;49.240;9.088;2022-11-15T00:48:27;7.05;;;2.50;;
18867;SDS011;9563;49.240;9.088;2022-11-15T00:50:54;5.78;;;2.47;;
18867;SDS011;9563;49.240;9.088;2022-11-15T00:53:21;4.95;;;2.83;;
18867;SDS011;9563;49.240;9.088;2022-11-15T00:55:48;7.43;;;2.72;;
18867;SDS011;9563;49.240;9.088;2022-11-15T00:58:16;3.55;;;2.10;;
18867;SDS011;9563;49.240;9.088;2022-11-15T01:00:43;6.15;;;3.05;;
18867;SDS011;9563;49.240;9.088;2022-11-15T01:03:10;6.60;;;3.38;;
18867;SDS011;9563;49.240;9.088;2022-11-15T01:05:37;4.72;;;3.03;;
18867;SDS011;9563;49.240;9.088;2022-11-15T01:08:04;7.50;;;2.75;;
18867;SDS011;9563;49.240;9.088;2022-11-15T01:10:31;4.22;;;2.15;;
18867;SDS011;9563;49.240;9.088;2022-11-15T01:12:59;6.25;;;3.13;;
18867;SDS011;9563;49.240;9.088;2022-11-15T01:15:28;5.82;;;2.78;;
18867;SDS011;9563;49.240;9.088;2022-11-15T01:17:55;6.18;;;2.88;;
18867;SDS011;9563;49.240;9.088;2022-11-15T01:20:21;5.97;;;2.70;;
18867;SDS011;9563;49.240;9.088;2022-11-15T01:22:48;6.57;;;2.78;;
18867;SDS011;9563;49.240;9.088;2022-11-15T01:25:15;10.73;;;3.13;;
18867;SDS011;9563;49.240;9.088;2022-11-15T01:27:42;3.33;;;2.47;;
18867;SDS011;9563;49.240;9.088;2022-11-15T01:30:09;6.00;;;2.53;;
18867;SDS011;9563;49.240;9.088;2022-11-15T01:32:37;3.47;;;2.60;;
18867;SDS011;9563;49.240;9.088;2022-11-15T01:35:04;3.45;;;2.67;;
18867;SDS011;9563;49.240;9.088;2022-11-15T01:37:32;5.15;;;2.55;;
18867;SDS011;9563;49.240;9.088;2022-11-15T01:39:58;6.07;;;2.97;;
18867;SDS011;9563;49.240;9.088;2022-11-15T01:42:25;3.33;;;2.30;;
18867;SDS011;9563;49.240;9.088;2022-11-15T01:44:52;3.97;;;2.38;;
18867;SDS011;9563;49.240;9.088;2022-11-15T01:47:20;4.05;;;2.22;;
18867;SDS011;9563;49.240;9.088;2022-11-15T01:49:54;4.80;;;2.45;;
18867;SDS011;9563;49.240;9.088;2022-11-15T01:52:24;5.38;;;2.50;;
18867;SDS011;9563;49.240;9.088;2022-11-15T01:54:53;4.18;;;2.05;;
18867;SDS011;9563;49.240;9.088;2022-11-15T01:57:25;4.97;;;2.55;;
18867;SDS011;9563;49.240;9.088;2022-11-15T01:59:52;5.85;;;2.45;;
18867;SDS011;9563;49.240;9.088;2022-11-15T02:02:20;2.97;;;2.10;;
18867;SDS011;9563;49.240;9.088;2022-11-15T02:04:47;4.37;;;2.40;;
18867;SDS011;9563;49.240;9.088;2022-11-15T02:07:16;5.63;;;2.17;;
18867;SDS011;9563;49.240;9.088;2022-11-15T02:09:44;3.80;;;2.47;;
18867;SDS011;9563;49.240;9.088;2022-11-15T02:12:13;5.35;;;2.72;;
18867;SDS011;9563;49.240;9.088;2022-11-15T02:14:44;4.30;;;2.90;;
18867;SDS011;9563;49.240;9.088;2022-11-15T02:17:31;4.40;;;2.67;;
18867;SDS011;9563;49.240;9.088;2022-11-15T02:23:22;5.30;;;2.57;;
18867;SDS011;9563;49.240;9.088;2022-11-15T02:26:16;5.43;;;2.53;;
18867;SDS011;9563;49.240;9.088;2022-11-15T02:28:59;7.40;;;2.70;;
18867;SDS011;9563;49.240;9.088;2022-11-15T02:31:31;4.03;;;2.63;;
18867;SDS011;9563;49.240;9.088;2022-11-15T02:34:06;5.13;;;2.67;;
18867;SDS011;9563;49.240;9.088;2022-11-15T02:36:41;4.70;;;2.80;;
18867;SDS011;9563;49.240;9.088;2022-11-15T02:39:19;6.20;;;2.67;;
18867;SDS011;9563;49.240;9.088;2022-11-15T02:41:54;6.80;;;2.93;;
18867;SDS011;9563;49.240;9.088;2022-11-15T02:44:30;5.57;;;3.07;;
18867;SDS011;9563;49.240;9.088;2022-11-15T02:47:00;7.87;;;3.70;;
18867;SDS011;9563;49.240;9.088;2022-11-15T02:49:40;5.17;;;3.10;;
18867;SDS011;9563;49.240;9.088;2022-11-15T02:52:13;10.77;;;3.10;;
18867;SDS011;9563;49.240;9.088;2022-11-15T02:54:41;8.03;;;3.50;;
18867;SDS011;9563;49.240;9.088;2022-11-15T02:57:10;5.50;;;3.50;;
18867;SDS011;9563;49.240;9.088;2022-11-15T02:59:48;4.50;;;2.87;;
18867;SDS011;9563;49.240;9.088;2022-11-15T03:02:34;4.43;;;2.83;;
18867;SDS011;9563;49.240;9.088;2022-11-15T03:05:14;3.57;;;2.50;;
18867;SDS011;9563;49.240;9.088;2022-11-15T03:07:49;4.27;;;2.40;;
18867;SDS011;9563;49.240;9.088;2022-11-15T03:10:24;5.37;;;2.73;;
18867;SDS011;9563;49.240;9.088;2022-11-15T03:12:59;5.17;;;3.00;;
18867;SDS011;9563;49.240;9.088;2022-11-15T03:15:38;3.87;;;2.47;;
18867;SDS011;9563;49.240;9.088;2022-11-15T03:18:13;6.03;;;3.47;;
18867;SDS011;9563;49.240;9.088;2022-11-15T03:20:45;4.43;;;2.60;;
18867;SDS011;9563;49.240;9.088;2022-11-15T03:23:14;7.33;;;3.43;;
18867;SDS011;9563;49.240;9.088;2022-11-15T03:25:41;5.77;;;2.93;;
18867;SDS011;9563;49.240;9.088;2022-11-15T03:28:14;5.23;;;2.97;;
18867;SDS011;9563;49.240;9.088;2022-11-15T03:30:46;5.53;;;2.80;;
18867;SDS011;9563;49.240;9.088;2022-11-15T03:33:17;6.60;;;3.17;;
18867;SDS011;9563;49.240;9.088;2022-11-15T03:35:46;4.77;;;2.97;;
18867;SDS011;9563;49.240;9.088;2022-11-15T03:38:15;5.40;;;2.70;;
18867;SDS011;9563;49.240;9.088;2022-11-15T03:40:47;4.43;;;2.50;;
18867;SDS011;9563;49.240;9.088;2022-11-15T03:43:22;3.30;;;2.50;;
18867;SDS011;9563;49.240;9.088;2022-11-15T03:45:55;4.57;;;2.27;;
18867;SDS011;9563;49.240;9.088;2022-11-15T03:48:30;5.83;;;2.63;;
18867;SDS011;9563;49.240;9.088;2022-11-15T03:51:02;5.07;;;2.97;;
18867;SDS011;9563;49.240;9.088;2022-11-15T03:53:30;4.90;;;2.60;;
18867;SDS011;9563;49.240;9.088;2022-11-15T03:55:57;5.33;;;3.00;;
18867;SDS011;9563;49.240;9.088;2022-11-15T03:58:24;7.03;;;3.30;;
18867;SDS011;9563;49.240;9.088;2022-11-15T04:00:51;5.17;;;2.83;;
18867;SDS011;9563;49.240;9.088;2022-11-15T04:03:18;4.50;;;2.83;;
18867;SDS011;9563;49.240;9.088;2022-11-15T04:05:46;6.07;;;2.80;;
18867;SDS011;9563;49.240;9.088;2022-11-15T04:08:13;4.40;;;2.80;;
18867;SDS011;9563;49.240;9.088;2022-11-15T04:10:40;8.00;;;2.40;;
18867;SDS011;9563;49.240;9.088;2022-11-15T04:13:07;3.70;;;2.50;;
18867;SDS011;9563;49.240;9.088;2022-11-15T04:15:34;5.13;;;2.80;;
18867;SDS011;9563;49.240;9.088;2022-11-15T04:18:01;8.30;;;3.33;;
18867;SDS011;9563;49.240;9.088;2022-11-15T04:20:29;7.67;;;3.17;;
18867;SDS011;9563;49.240;9.088;2022-11-15T04:23:16;4.47;;;2.70;;
18867;SDS011;9563;49.240;9.088;2022-11-15T04:26:02;8.03;;;3.00;;
18867;SDS011;9563;49.240;9.088;2022-11-15T04:28:30;5.57;;;2.77;;
18867;SDS011;9563;49.240;9.088;2022-11-15T04:30:57;7.93;;;3.10;;
18867;SDS011;9563;49.240;9.088;2022-11-15T04:33:24;4.70;;;2.30;;
18867;SDS011;9563;49.240;9.088;2022-11-15T04:35:52;3.83;;;2.50;;
18867;SDS011;9563;49.240;9.088;2022-11-15T04:38:37;5.33;;;3.03;;
18867;SDS011;9563;49.240;9.088;2022-11-15T04:41:04;4.93;;;2.80;;
18867;SDS011;9563;49.240;9.088;2022-11-15T04:43:31;4.60;;;2.77;;
18867;SDS011;9563;49.240;9.088;2022-11-15T04:45:58;4.63;;;2.67;;
18867;SDS011;9563;49.240;9.088;2022-11-15T04:48:25;5.63;;;2.80;;
18867;SDS011;9563;49.240;9.088;2022-11-15T04:50:52;5.13;;;2.60;;
18867;SDS011;9563;49.240;9.088;2022-11-15T04:53:19;5.63;;;2.97;;
18867;SDS011;9563;49.240;9.088;2022-11-15T04:55:47;5.00;;;2.90;;
18867;SDS011;9563;49.240;9.088;2022-11-15T04:58:14;4.80;;;2.63;;
18867;SDS011;9563;49.240;9.088;2022-11-15T05:00:41;4.68;;;2.70;;
18867;SDS011;9563;49.240;9.088;2022-11-15T05:03:08;7.13;;;3.53;;
18867;SDS011;9563;49.240;9.088;2022-11-15T05:05:52;5.37;;;3.17;;
18867;SDS011;9563;49.240;9.088;2022-11-15T05:08:19;5.00;;;2.93;;
18867;SDS011;9563;49.240;9.088;2022-11-15T05:10:48;4.45;;;2.78;;
18867;SDS011;9563;49.240;9.088;2022-11-15T05:13:15;9.47;;;3.03;;
18867;SDS011;9563;49.240;9.088;2022-11-15T05:15:42;6.53;;;3.45;;
18867;SDS011;9563;49.240;9.088;2022-11-15T05:18:09;6.43;;;3.70;;
18867;SDS011;9563;49.240;9.088;2022-11-15T05:20:36;12.47;;;3.87;;
18867;SDS011;9563;49.240;9.088;2022-11-15T05:23:03;5.17;;;3.00;;
18867;SDS011;9563;49.240;9.088;2022-11-15T05:25:30;6.50;;;3.38;;
18867;SDS011;9563;49.240;9.088;2022-11-15T05:27:59;9.88;;;3.40;;
18867;SDS011;9563;49.240;9.088;2022-11-15T05:30:25;9.93;;;3.37;;
18867;SDS011;9563;49.240;9.088;2022-11-15T05:32:52;5.95;;;3.40;;
18867;SDS011;9563;49.240;9.088;2022-11-15T05:35:21;8.48;;;3.83;;
18867;SDS011;9563;49.240;9.088;2022-11-15T05:37:55;5.63;;;3.50;;
18867;SDS011;9563;49.240;9.088;2022-11-15T05:40:23;7.40;;;3.80;;
18867;SDS011;9563;49.240;9.088;2022-11-15T05:42:50;8.90;;;3.63;;
18867;SDS011;9563;49.240;9.088;2022-11-15T05:45:19;6.28;;;3.45;;
18867;SDS011;9563;49.240;9.088;2022-11-15T05:47:46;8.07;;;3.93;;
18867;SDS011;9563;49.240;9.088;2022-11-15T05:50:16;8.03;;;3.70;;
18867;SDS011;9563;49.240;9.088;2022-11-15T05:52:44;5.93;;;3.50;;
18867;SDS011;9563;49.240;9.088;2022-11-15T05:55:12;7.40;;;3.37;;
18867;SDS011;9563;49.240;9.088;2022-11-15T05:57:40;8.10;;;3.37;;
18867;SDS011;9563;49.240;9.088;2022-11-15T06:00:07;9.67;;;4.30;;
18867;SDS011;9563;49.240;9.088;2022-11-15T06:02:36;5.37;;;2.80;;
18867;SDS011;9563;49.240;9.088;2022-11-15T06:05:03;4.37;;;2.57;;
18867;SDS011;9563;49.240;9.088;2022-11-15T06:07:30;5.97;;;3.20;;
18867;SDS011;9563;49.240;9.088;2022-11-15T06:09:57;6.00;;;2.70;;
18867;SDS011;9563;49.240;9.088;2022-11-15T06:12:24;7.37;;;2.83;;
18867;SDS011;9563;49.240;9.088;2022-11-15T06:14:51;5.57;;;2.80;;
18867;SDS011;9563;49.240;9.088;2022-11-15T06:17:18;6.43;;;3.13;;
18867;SDS011;9563;49.240;9.088;2022-11-15T06:19:46;9.00;;;4.73;;
18867;SDS011;9563;49.240;9.088;2022-11-15T06:22:13;10.83;;;5.13;;
18867;SDS011;9563;49.240;9.088;2022-11-15T06:24:40;11.03;;;5.00;;
18867;SDS011;9563;49.240;9.088;2022-11-15T06:27:17;7.27;;;4.23;;
18867;SDS011;9563;49.240;9.088;2022-11-15T06:29:44;9.27;;;5.10;;
18867;SDS011;9563;49.240;9.088;2022-11-15T06:32:11;10.17;;;5.43;;
18867;SDS011;9563;49.240;9.088;2022-11-15T06:34:38;11.83;;;5.50;;
18867;SDS011;9563;49.240;9.088;2022-11-15T06:37:06;10.70;;;5.90;;
18867;SDS011;9563;49.240;9.088;2022-11-15T06:39:33;11.57;;;5.77;;
18867;SDS011;9563;49.240;9.088;2022-11-15T06:42:00;19.07;;;8.73;;
18867;SDS011;9563;49.240;9.088;2022-11-15T06:44:27;26.50;;;12.13;;
18867;SDS011;9563;49.240;9.088;2022-11-15T06:46:54;18.93;;;9.03;;
18867;SDS011;9563;49.240;9.088;2022-11-15T06:49:21;14.67;;;6.83;;
18867;SDS011;9563;49.240;9.088;2022-11-15T06:51:48;13.03;;;6.80;;
18867;SDS011;9563;49.240;9.088;2022-11-15T06:54:16;12.47;;;6.80;;
18867;SDS011;9563;49.240;9.088;2022-11-15T06:56:43;14.50;;;6.17;;
18867;SDS011;9563;49.240;9.088;2022-11-15T06:59:10;11.30;;;6.07;;
18867;SDS011;9563;49.240;9.088;2022-11-15T07:01:37;9.47;;;5.37;;
18867;SDS011;9563;49.240;9.088;2022-11-15T07:04:04;13.33;;;5.03;;
18867;SDS011;9563;49.240;9.088;2022-11-15T07:06:31;11.37;;;4.83;;
18867;SDS011;9563;49.240;9.088;2022-11-15T07:08:58;19.00;;;5.60;;
18867;SDS011;9563;49.240;9.088;2022-11-15T07:11:26;11.83;;;5.23;;
18867;SDS011;9563;49.240;9.088;2022-11-15T07:13:53;11.27;;;5.10;;
18867;SDS011;9563;49.240;9.088;2022-11-15T07:16:20;12.00;;;4.87;;
18867;SDS011;9563;49.240;9.088;2022-11-15T07:18:47;13.23;;;5.13;;
18867;SDS011;9563;49.240;9.088;2022-11-15T07:21:14;11.20;;;5.27;;
18867;SDS011;9563;49.240;9.088;2022-11-15T07:23:40;11.23;;;5.50;;
18867;SDS011;9563;49.240;9.088;2022-11-15T07:26:07;8.77;;;5.20;;
18867;SDS011;9563;49.240;9.088;2022-11-15T07:28:47;14.87;;;5.47;;
18867;SDS011;9563;49.240;9.088;2022-11-15T07:31:14;12.93;;;5.63;;
18867;SDS011;9563;49.240;9.088;2022-11-15T07:33:41;10.93;;;5.70;;
18867;SDS011;9563;49.240;9.088;2022-11-15T07:36:08;10.57;;;4.65;;
18867;SDS011;9563;49.240;9.088;2022-11-15T07:38:36;14.83;;;5.60;;
18867;SDS011;9563;49.240;9.088;2022-11-15T07:41:05;7.78;;;4.30;;
18867;SDS011;9563;49.240;9.088;2022-11-15T07:43:33;13.07;;;4.00;;
18867;SDS011;9563;49.240;9.088;2022-11-15T07:46:05;12.88;;;4.78;;
18867;SDS011;9563;49.240;9.088;2022-11-15T07:48:34;12.45;;;4.97;;
18867;SDS011;9563;49.240;9.088;2022-11-15T07:51:01;12.15;;;5.13;;
18867;SDS011;9563;49.240;9.088;2022-11-15T07:53:28;10.45;;;4.25;;
18867;SDS011;9563;49.240;9.088;2022-11-15T07:55:55;13.02;;;4.35;;
18867;SDS011;9563;49.240;9.088;2022-11-15T07:58:22;18.35;;;5.68;;
18867;SDS011;9563;49.240;9.088;2022-11-15T08:00:49;9.98;;;4.40;;
18867;SDS011;9563;49.240;9.088;2022-11-15T08:03:17;7.22;;;4.07;;
18867;SDS011;9563;49.240;9.088;2022-11-15T08:05:49;8.88;;;4.68;;
18867;SDS011;9563;49.240;9.088;2022-11-15T08:08:17;11.20;;;4.50;;
18867;SDS011;9563;49.240;9.088;2022-11-15T08:10:44;9.65;;;4.47;;
18867;SDS011;9563;49.240;9.088;2022-11-15T08:13:11;9.95;;;4.22;;
18867;SDS011;9563;49.240;9.088;2022-11-15T08:15:38;12.15;;;4.15;;
18867;SDS011;9563;49.240;9.088;2022-11-15T08:18:06;7.28;;;3.50;;
18867;SDS011;9563;49.240;9.088;2022-11-15T08:20:38;8.50;;;4.00;;
18867;SDS011;9563;49.240;9.088;2022-11-15T08:23:05;12.95;;;4.93;;
18867;SDS011;9563;49.240;9.088;2022-11-15T08:25:34;9.13;;;4.90;;
18867;SDS011;9563;49.240;9.088;2022-11-15T08:28:02;11.40;;;3.75;;
18867;SDS011;9563;49.240;9.088;2022-11-15T08:30:30;10.38;;;3.45;;
18867;SDS011;9563;49.240;9.088;2022-11-15T08:33:01;7.28;;;3.80;;
18867;SDS011;9563;49.240;9.088;2022-11-15T08:35:28;8.27;;;4.47;;
18867;SDS011;9563;49.240;9.088;2022-11-15T08:37:57;9.65;;;4.53;;
18867;SDS011;9563;49.240;9.088;2022-11-15T08:40:24;13.85;;;5.18;;
18867;SDS011;9563;49.240;9.088;2022-11-15T08:42:52;16.80;;;5.05;;
18867;SDS011;9563;49.240;9.088;2022-11-15T08:45:18;10.23;;;4.55;;
18867;SDS011;9563;49.240;9.088;2022-11-15T08:47:46;8.07;;;4.13;;
18867;SDS011;9563;49.240;9.088;2022-11-15T08:50:13;10.52;;;4.70;;
18867;SDS011;9563;49.240;9.088;2022-11-15T08:52:40;9.32;;;4.43;;
18867;SDS011;9563;49.240;9.088;2022-11-15T08:55:09;7.65;;;4.45;;
18867;SDS011;9563;49.240;9.088;2022-11-15T08:57:36;11.95;;;5.28;;
18867;SDS011;9563;49.240;9.088;2022-11-15T09:00:03;11.10;;;4.95;;
18867;SDS011;9563;49.240;9.088;2022-11-15T09:02:31;12.73;;;5.35;;
18867;SDS011;9563;49.240;9.088;2022-11-15T09:04:57;10.60;;;5.65;;
18867;SDS011;9563;49.240;9.088;2022-11-15T09:07:24;10.65;;;5.30;;
18867;SDS011;9563;49.240;9.088;2022-11-15T09:09:51;11.27;;;5.88;;
18867;SDS011;9563;49.240;9.088;2022-11-15T09:12:19;15.75;;;5.40;;
18867;SDS011;9563;49.240;9.088;2022-11-15T09:14:46;8.35;;;5.03;;
18867;SDS011;9563;49.240;9.088;2022-11-15T09:17:13;8.80;;;4.63;;
18867;SDS011;9563;49.240;9.088;2022-11-15T09:19:40;12.15;;;4.88;;
18867;SDS011;9563;49.240;9.088;2022-11-15T09:22:07;7.82;;;4.05;;
18867;SDS011;9563;49.240;9.088;2022-11-15T09:24:34;9.65;;;4.65;;
18867;SDS011;9563;49.240;9.088;2022-11-15T09:27:01;10.18;;;4.15;;
18867;SDS011;9563;49.240;9.088;2022-11-15T09:29:30;9.73;;;4.28;;
18867;SDS011;9563;49.240;9.088;2022-11-15T09:31:57;8.23;;;3.72;;
18867;SDS011;9563;49.240;9.088;2022-11-15T09:34:24;8.35;;;4.40;;
18867;SDS011;9563;49.240;9.088;2022-11-15T09:36:51;8.73;;;4.78;;
18867;SDS011;9563;49.240;9.088;2022-11-15T09:39:18;10.75;;;4.50;;
18867;SDS011;9563;49.240;9.088;2022-11-15T09:44:56;18.80;;;5.88;;
18867;SDS011;9563;49.240;9.088;2022-11-15T09:47:42;11.73;;;5.00;;
18867;SDS011;9563;49.240;9.088;2022-11-15T09:50:21;12.40;;;4.88;;
18867;SDS011;9563;49.240;9.088;2022-11-15T09:52:57;8.68;;;4.13;;
18867;SDS011;9563;49.240;9.088;2022-11-15T09:55:26;7.50;;;4.38;;
18867;SDS011;9563;49.240;9.088;2022-11-15T09:58:03;7.57;;;3.90;;
18867;SDS011;9563;49.240;9.088;2022-11-15T10:00:37;9.70;;;3.75;;
18867;SDS011;9563;49.240;9.088;2022-11-15T10:03:09;8.25;;;2.70;;
18867;SDS011;9563;49.240;9.088;2022-11-15T10:05:39;5.25;;;2.35;;
18867;SDS011;9563;49.240;9.088;2022-11-15T10:08:11;10.55;;;3.15;;
18867;SDS011;9563;49.240;9.088;2022-11-15T10:10:52;2.80;;;2.40;;
18867;SDS011;9563;49.240;9.088;2022-11-15T10:13:23;7.93;;;2.63;;
18867;SDS011;9563;49.240;9.088;2022-11-15T10:15:53;6.70;;;3.05;;
18867;SDS011;9563;49.240;9.088;2022-11-15T10:18:28;8.57;;;3.13;;
18867;SDS011;9563;49.240;9.088;2022-11-15T10:21:02;8.98;;;2.92;;
18867;SDS011;9563;49.240;9.088;2022-11-15T10:23:41;6.10;;;2.92;;
18867;SDS011;9563;49.240;9.088;2022-11-15T10:26:09;6.50;;;2.90;;
18867;SDS011;9563;49.240;9.088;2022-11-15T10:28:41;3.53;;;2.50;;
18867;SDS011;9563;49.240;9.088;2022-11-15T10:31:20;6.80;;;2.42;;
18867;SDS011;9563;49.240;9.088;2022-11-15T10:33:49;4.72;;;2.78;;
18867;SDS011;9563;49.240;9.088;2022-11-15T10:36:25;3.60;;;2.35;;
18867;SDS011;9563;49.240;9.088;2022-11-15T10:38:54;5.18;;;2.70;;
18867;SDS011;9563;49.240;9.088;2022-11-15T10:41:29;5.93;;;3.17;;
18867;SDS011;9563;49.240;9.088;2022-11-15T10:47:06;4.78;;;2.42;;
18867;SDS011;9563;49.240;9.088;2022-11-15T10:49:53;6.50;;;2.70;;
18867;SDS011;9563;49.240;9.088;2022-11-15T10:52:22;4.95;;;2.60;;
18867;SDS011;9563;49.240;9.088;2022-11-15T10:54:50;9.02;;;3.33;;
18867;SDS011;9563;49.240;9.088;2022-11-15T10:57:22;6.78;;;2.40;;
18867;SDS011;9563;49.240;9.088;2022-11-15T10:59:51;4.55;;;2.35;;
18867;SDS011;9563;49.240;9.088;2022-11-15T11:05:25;10.82;;;3.10;;
18867;SDS011;9563;49.240;9.088;2022-11-15T11:07:55;5.55;;;2.65;;
18867;SDS011;9563;49.240;9.088;2022-11-15T11:10:23;5.78;;;2.85;;
18867;SDS011;9563;49.240;9.088;2022-11-15T11:12:50;8.25;;;3.20;;
18867;SDS011;9563;49.240;9.088;2022-11-15T11:15:17;10.13;;;2.70;;
18867;SDS011;9563;49.240;9.088;2022-11-15T11:20:32;5.18;;;3.10;;
18867;SDS011;9563;49.240;9.088;2022-11-15T11:23:06;6.93;;;2.80;;
18867;SDS011;9563;49.240;9.088;2022-11-15T11:25:46;4.10;;;2.70;;
18867;SDS011;9563;49.240;9.088;2022-11-15T11:28:28;5.78;;;3.38;;
18867;SDS011;9563;49.240;9.088;2022-11-15T11:31:09;4.70;;;2.50;;
18867;SDS011;9563;49.240;9.088;2022-11-15T11:33:49;6.22;;;3.20;;
18867;SDS011;9563;49.240;9.088;2022-11-15T11:36:22;6.07;;;3.20;;
18867;SDS011;9563;49.240;9.088;2022-11-15T11:38:56;7.32;;;2.88;;
18867;SDS011;9563;49.240;9.088;2022-11-15T11:41:43;8.60;;;3.20;;
18867;SDS011;9563;49.240;9.088;2022-11-15T11:44:30;6.57;;;2.85;;
18867;SDS011;9563;49.240;9.088;2022-11-15T11:47:03;7.43;;;2.90;;
18867;SDS011;9563;49.240;9.088;2022-11-15T11:49:38;7.68;;;2.80;;
18867;SDS011;9563;49.240;9.088;2022-11-15T11:52:10;5.68;;;2.60;;
18867;SDS011;9563;49.240;9.088;2022-11-15T11:54:47;7.72;;;2.72;;
18867;SDS011;9563;49.240;9.088;2022-11-15T11:57:23;7.90;;;3.20;;
18867;SDS011;9563;49.240;9.088;2022-11-15T11:59:56;4.68;;;2.95;;
18867;SDS011;9563;49.240;9.088;2022-11-15T12:02:28;5.70;;;2.78;;
18867;SDS011;9563;49.240;9.088;2022-11-15T12:05:03;8.13;;;3.13;;
18867;SDS011;9563;49.240;9.088;2022-11-15T12:07:36;7.05;;;2.63;;
18867;SDS011;9563;49.240;9.088;2022-11-15T12:10:12;6.53;;;3.17;;
18867;SDS011;9563;49.240;9.088;2022-11-15T12:12:47;12.48;;;3.58;;
18867;SDS011;9563;49.240;9.088;2022-11-15T12:15:20;9.98;;;3.60;;
18867;SDS011;9563;49.240;9.088;2022-11-15T12:17:50;4.28;;;2.53;;
18867;SDS011;9563;49.240;9.088;2022-11-15T12:20:19;6.28;;;3.00;;
18867;SDS011;9563;49.240;9.088;2022-11-15T12:22:52;8.20;;;2.50;;
18867;SDS011;9563;49.240;9.088;2022-11-15T12:25:22;5.47;;;2.80;;
18867;SDS011;9563;49.240;9.088;2022-11-15T12:27:56;5.25;;;3.00;;
18867;SDS011;9563;49.240;9.088;2022-11-15T12:30:27;7.25;;;3.00;;
18867;SDS011;9563;49.240;9.088;2022-11-15T12:33:04;6.55;;;3.30;;
18867;SDS011;9563;49.240;9.088;2022-11-15T12:35:34;9.75;;;3.63;;
18867;SDS011;9563;49.240;9.088;2022-11-15T12:38:03;7.13;;;2.97;;
18867;SDS011;9563;49.240;9.088;2022-11-15T12:40:32;12.52;;;3.20;;
18867;SDS011;9563;49.240;9.088;2022-11-15T12:46:01;8.32;;;3.17;;
18867;SDS011;9563;49.240;9.088;2022-11-15T12:57:31;8.38;;;2.78;;
18867;SDS011;9563;49.240;9.088;2022-11-15T13:00:19;6.18;;;3.33;;
18867;SDS011;9563;49.240;9.088;2022-11-15T13:06:09;6.38;;;3.30;;
18867;SDS011;9563;49.240;9.088;2022-11-15T13:12:52;7.13;;;2.83;;
18867;SDS011;9563;49.240;9.088;2022-11-15T13:15:44;7.20;;;3.78;;
18867;SDS011;9563;49.240;9.088;2022-11-15T13:18:28;5.18;;;3.35;;
18867;SDS011;9563;49.240;9.088;2022-11-15T13:20:58;8.25;;;3.42;;
18867;SDS011;9563;49.240;9.088;2022-11-15T13:23:26;6.43;;;3.72;;
18867;SDS011;9563;49.240;9.088;2022-11-15T13:26:05;7.22;;;3.33;;
18867;SDS011;9563;49.240;9.088;2022-11-15T13:28:38;8.18;;;3.70;;
18867;SDS011;9563;49.240;9.088;2022-11-15T13:33:58;7.20;;;3.50;;
18867;SDS011;9563;49.240;9.088;2022-11-15T13:36:28;8.52;;;3.13;;
18867;SDS011;9563;49.240;9.088;2022-11-15T13:38:59;9.13;;;3.72;;
18867;SDS011;9563;49.240;9.088;2022-11-15T13:41:28;10.95;;;3.95;;
18867;SDS011;9563;49.240;9.088;2022-11-15T13:43:57;8.82;;;3.25;;
18867;SDS011;9563;49.240;9.088;2022-11-15T13:46:26;8.55;;;3.53;;
18867;SDS011;9563;49.240;9.088;2022-11-15T13:48:56;10.70;;;3.25;;
18867;SDS011;9563;49.240;9.088;2022-11-15T13:51:26;6.03;;;3.25;;
18867;SDS011;9563;49.240;9.088;2022-11-15T13:53:58;8.27;;;3.80;;
18867;SDS011;9563;49.240;9.088;2022-11-15T13:56:29;6.13;;;3.53;;
18867;SDS011;9563;49.240;9.088;2022-11-15T13:58:59;8.35;;;4.47;;
18867;SDS011;9563;49.240;9.088;2022-11-15T14:01:27;9.80;;;4.90;;
18867;SDS011;9563;49.240;9.088;2022-11-15T14:03:59;10.23;;;4.82;;
18867;SDS011;9563;49.240;9.088;2022-11-15T14:06:28;12.50;;;4.63;;
18867;SDS011;9563;49.240;9.088;2022-11-15T14:09:03;15.25;;;5.32;;
18867;SDS011;9563;49.240;9.088;2022-11-15T14:11:48;14.25;;;6.03;;
18867;SDS011;9563;49.240;9.088;2022-11-15T14:14:17;12.80;;;5.25;;
18867;SDS011;9563;49.240;9.088;2022-11-15T14:16:48;9.48;;;4.90;;
18867;SDS011;9563;49.240;9.088;2022-11-15T14:19:34;10.23;;;4.70;;
18867;SDS011;9563;49.240;9.088;2022-11-15T14:22:07;17.92;;;7.22;;
18867;SDS011;9563;49.240;9.088;2022-11-15T14:24:36;14.23;;;7.10;;
18867;SDS011;9563;49.240;9.088;2022-11-15T14:27:20;18.85;;;6.05;;
18867;SDS011;9563;49.240;9.088;2022-11-15T14:29:49;13.32;;;5.57;;
18867;SDS011;9563;49.240;9.088;2022-11-15T14:32:17;11.18;;;6.18;;
18867;SDS011;9563;49.240;9.088;2022-11-15T14:34:47;16.17;;;5.68;;
18867;SDS011;9563;49.240;9.088;2022-11-15T14:37:18;13.57;;;6.57;;
18867;SDS011;9563;49.240;9.088;2022-11-15T14:39:50;13.90;;;5.30;;
18867;SDS011;9563;49.240;9.088;2022-11-15T14:42:18;8.70;;;5.13;;
18867;SDS011;9563;49.240;9.088;2022-11-15T14:44:46;8.52;;;4.80;;
18867;SDS011;9563;49.240;9.088;2022-11-15T14:47:13;11.88;;;5.43;;
18867;SDS011;9563;49.240;9.088;2022-11-15T14:49:40;11.13;;;5.57;;
18867;SDS011;9563;49.240;9.088;2022-11-15T14:52:16;8.07;;;5.53;;
18867;SDS011;9563;49.240;9.088;2022-11-15T14:54:52;9.52;;;5.03;;
18867;SDS011;9563;49.240;9.088;2022-11-15T14:57:19;7.65;;;4.80;;
18867;SDS011;9563;49.240;9.088;2022-11-15T14:59:46;7.03;;;3.55;;
18867;SDS011;9563;49.240;9.088;2022-11-15T15:02:15;9.13;;;4.10;;
18867;SDS011;9563;49.240;9.088;2022-11-15T15:04:44;10.00;;;4.47;;
18867;SDS011;9563;49.240;9.088;2022-11-15T15:07:13;9.30;;;6.15;;
18867;SDS011;9563;49.240;9.088;2022-11-15T15:09:40;11.23;;;6.07;;
18867;SDS011;9563;49.240;9.088;2022-11-15T15:12:13;10.30;;;6.25;;
18867;SDS011;9563;49.240;9.088;2022-11-15T15:14:44;13.00;;;6.65;;
18867;SDS011;9563;49.240;9.088;2022-11-15T15:17:11;13.50;;;6.32;;
18867;SDS011;9563;49.240;9.088;2022-11-15T15:19:38;12.10;;;6.15;;
18867;SDS011;9563;49.240;9.088;2022-11-15T15:22:09;9.02;;;5.65;;
18867;SDS011;9563;49.240;9.088;2022-11-15T15:24:40;12.82;;;6.45;;
18867;SDS011;9563;49.240;9.088;2022-11-15T15:27:08;10.60;;;6.00;;
18867;SDS011;9563;49.240;9.088;2022-11-15T15:29:35;19.17;;;8.13;;
18867;SDS011;9563;49.240;9.088;2022-11-15T15:32:02;20.05;;;8.20;;
18867;SDS011;9563;49.240;9.088;2022-11-15T15:34:30;19.45;;;8.20;;
18867;SDS011;9563;49.240;9.088;2022-11-15T15:37:18;18.85;;;7.53;;
18867;SDS011;9563;49.240;9.088;2022-11-15T15:39:49;10.85;;;5.57;;
18867;SDS011;9563;49.240;9.088;2022-11-15T15:42:16;11.60;;;6.18;;
18867;SDS011;9563;49.240;9.088;2022-11-15T15:44:43;19.25;;;8.10;;
18867;SDS011;9563;49.240;9.088;2022-11-15T15:47:11;15.32;;;7.32;;
18867;SDS011;9563;49.240;9.088;2022-11-15T15:49:40;17.92;;;7.35;;
18867;SDS011;9563;49.240;9.088;2022-11-15T15:52:07;18.52;;;10.05;;
18867;SDS011;9563;49.240;9.088;2022-11-15T15:54:35;20.27;;;11.07;;